Station Historical Data
Daily Summary for September 13, 2017 Units:  English    Metric   Both
« Previous Day
Next Day »
Daily Weekly Monthly Yearly Custom
  High: Low: Average:
Temperature: 80.6 °F 53.5 °F 66.6 °F
Dew Point: 65.1 °F 50.4 °F 58 °F
Humidity: 90% 55% 75%
Wind Speed: 7.0mph 0.0mph 1.1mph
Wind Gust: 10.0mph - -
Wind- - SW
Pressure: 29.89 in 29.76 in -
Precipitation: 0.00 in    
Historical Graphs
 
 
Tabular Data for September 13, 2017
Time Temperature Dew Point Pressure Wind Wind Speed Wind Gust Humidity Rainfall Rate (Hourly)
00:04 60.7 °F 55.8 °F 29.89 in Calm     84% 0.00 in
00:09 60.3 °F 55.4 °F 29.89 in Calm     84% 0.00 in
00:15 59.8 °F 55.3 °F 29.89 in Calm     85% 0.00 in
00:24 59.5 °F 55.3 °F 29.89 in Calm     86% 0.00 in
00:29 59.5 °F 55.3 °F 29.89 in Calm     86% 0.00 in
00:34 59.3 °F 55.4 °F 29.89 in Calm     87% 0.00 in
00:39 59.3 °F 55.4 °F 29.89 in Calm     87% 0.00 in
00:44 59.2 °F 55.3 °F 29.89 in Calm     87% 0.00 in
00:49 59.1 °F 55.2 °F 29.89 in Calm     87% 0.00 in
00:54 58.8 °F 54.9 °F 29.89 in Calm     87% 0.00 in
00:59 58.7 °F 55.2 °F 29.89 in Calm     88% 0.00 in
01:04 58.4 °F 54.9 °F 29.89 in Calm     88% 0.00 in
01:09 58.5 °F 55.0 °F 29.89 in Calm     88% 0.00 in
01:14 58.5 °F 55.0 °F 29.89 in Calm   2.0 mph 88% 0.00 in
01:19 58.4 °F 54.9 °F 29.89 in Calm     88% 0.00 in
01:24 58.3 °F 54.8 °F 29.89 in Calm     88% 0.00 in
01:29 58.2 °F 54.7 °F 29.89 in Calm     88% 0.00 in
01:34 58.1 °F 54.6 °F 29.89 in Calm     88% 0.00 in
01:39 58.1 °F 54.6 °F 29.88 in Calm   2.0 mph 88% 0.00 in
01:44 58.0 °F 54.5 °F 29.89 in Calm     88% 0.00 in
01:49 57.9 °F 54.4 °F 29.89 in Calm   3.0 mph 88% 0.00 in
01:54 57.7 °F 54.2 °F 29.88 in Calm   3.0 mph 88% 0.00 in
01:59 57.4 °F 53.9 °F 29.88 in Calm   2.0 mph 88% 0.00 in
02:04 57.2 °F 53.7 °F 29.88 in Calm   1.0 mph 88% 0.00 in
02:09 57.1 °F 53.6 °F 29.88 in Calm     88% 0.00 in
02:14 56.8 °F 53.3 °F 29.88 in Calm   1.0 mph 88% 0.00 in
02:19 56.7 °F 53.2 °F 29.88 in Calm   1.0 mph 88% 0.00 in
02:24 56.6 °F 53.1 °F 29.88 in Calm     88% 0.00 in
02:29 56.3 °F 52.8 °F 29.88 in Calm     88% 0.00 in
02:34 56.0 °F 52.5 °F 29.88 in Calm     88% 0.00 in
02:39 55.9 °F 52.4 °F 29.88 in Calm     88% 0.00 in
02:44 55.7 °F 52.2 °F 29.88 in Calm     88% 0.00 in
02:49 55.6 °F 52.1 °F 29.88 in Calm     88% 0.00 in
02:54 55.4 °F 51.9 °F 29.88 in Calm     88% 0.00 in
02:59 55.3 °F 52.1 °F 29.88 in Calm     89% 0.00 in
03:04 55.2 °F 52.0 °F 29.88 in Calm     89% 0.00 in
03:09 55.1 °F 51.9 °F 29.88 in Calm     89% 0.00 in
03:14 54.9 °F 51.7 °F 29.88 in Calm     89% 0.00 in
03:19 54.7 °F 51.5 °F 29.87 in Calm     89% 0.00 in
03:24 54.6 °F 51.4 °F 29.87 in Calm     89% 0.00 in
03:29 54.4 °F 51.2 °F 29.87 in Calm     89% 0.00 in
03:34 54.3 °F 51.1 °F 29.87 in Calm     89% 0.00 in
03:39 54.1 °F 51.2 °F 29.87 in Calm     90% 0.00 in
03:44 54.1 °F 51.2 °F 29.87 in Calm     90% 0.00 in
03:49 53.9 °F 51.0 °F 29.87 in Calm     90% 0.00 in
03:54 54.0 °F 51.1 °F 29.86 in Calm     90% 0.00 in
03:59 54.0 °F 51.1 °F 29.86 in Calm     90% 0.00 in
04:04 54.1 °F 51.2 °F 29.86 in Calm     90% 0.00 in
04:09 54.1 °F 51.2 °F 29.86 in Calm     90% 0.00 in
04:14 54.1 °F 51.2 °F 29.86 in Calm     90% 0.00 in
04:19 53.9 °F 51.0 °F 29.86 in Calm     90% 0.00 in
04:24 53.8 °F 50.9 °F 29.85 in Calm     90% 0.00 in
04:29 53.9 °F 51.0 °F 29.86 in Calm     90% 0.00 in
04:34 53.8 °F 50.9 °F 29.86 in Calm     90% 0.00 in
04:39 53.6 °F 50.4 °F 29.86 in Calm     89% 0.00 in
04:44 53.5 °F 50.6 °F 29.85 in Calm     90% 0.00 in
04:49 53.5 °F 50.6 °F 29.86 in Calm     90% 0.00 in
04:54 53.6 °F 50.7 °F 29.86 in Calm     90% 0.00 in
04:59 53.6 °F 50.7 °F 29.86 in Calm     90% 0.00 in
05:04 53.7 °F 50.8 °F 29.86 in Calm     90% 0.00 in
05:09 53.8 °F 50.9 °F 29.86 in Calm     90% 0.00 in
05:14 53.8 °F 50.6 °F 29.86 in Calm     89% 0.00 in
05:19 53.9 °F 50.7 °F 29.86 in Calm     89% 0.00 in
05:24 53.9 °F 50.7 °F 29.86 in Calm     89% 0.00 in
05:29 53.9 °F 50.7 °F 29.86 in Calm     89% 0.00 in
05:34 53.9 °F 50.7 °F 29.86 in Calm     89% 0.00 in
05:39 53.9 °F 50.7 °F 29.86 in Calm     89% 0.00 in
05:44 53.8 °F 50.6 °F 29.86 in Calm     89% 0.00 in
05:49 53.9 °F 50.7 °F 29.86 in Calm     89% 0.00 in
05:54 53.8 °F 50.6 °F 29.86 in Calm     89% 0.00 in
05:59 53.7 °F 50.5 °F 29.86 in Calm     89% 0.00 in
06:04 53.7 °F 50.5 °F 29.86 in Calm     89% 0.00 in
06:09 53.7 °F 50.5 °F 29.86 in Calm     89% 0.00 in
06:14 53.8 °F 50.6 °F 29.86 in Calm     89% 0.00 in
06:19 54.0 °F 50.8 °F 29.86 in Calm     89% 0.00 in
06:24 54.2 °F 51.0 °F 29.86 in Calm     89% 0.00 in
06:29 54.4 °F 51.2 °F 29.86 in Calm     89% 0.00 in
06:34 54.5 °F 51.3 °F 29.86 in Calm   2.0 mph 89% 0.00 in
06:39 54.8 °F 51.3 °F 29.86 in Calm   2.0 mph 88% 0.00 in
06:44 55.0 °F 51.5 °F 29.86 in Calm   1.0 mph 88% 0.00 in
06:49 55.2 °F 51.7 °F 29.86 in Calm   1.0 mph 88% 0.00 in
06:54 55.4 °F 51.6 °F 29.86 in Calm     87% 0.00 in
06:59 55.6 °F 51.8 °F 29.86 in Calm     87% 0.00 in
07:04 55.8 °F 52.0 °F 29.86 in Calm     87% 0.00 in
07:09 55.9 °F 52.1 °F 29.86 in Calm     87% 0.00 in
07:14 56.2 °F 52.1 °F 29.86 in Calm     86% 0.00 in
07:19 56.4 °F 52.3 °F 29.86 in Calm     86% 0.00 in
07:24 56.6 °F 52.5 °F 29.86 in Calm     86% 0.00 in
07:29 56.8 °F 52.3 °F 29.86 in Calm     85% 0.00 in
07:34 57.0 °F 52.5 °F 29.86 in Calm     85% 0.00 in
07:39 57.1 °F 52.6 °F 29.86 in Calm     85% 0.00 in
07:44 57.3 °F 52.8 °F 29.87 in Calm     85% 0.00 in
07:49 57.4 °F 52.6 °F 29.87 in Calm     84% 0.00 in
07:54 57.6 °F 52.8 °F 29.87 in Calm     84% 0.00 in
07:59 57.8 °F 53.0 °F 29.87 in Calm     84% 0.00 in
08:04 58.1 °F 53.3 °F 29.87 in Calm     84% 0.00 in
08:09 58.3 °F 53.2 °F 29.87 in Calm     83% 0.00 in
08:14 58.6 °F 53.5 °F 29.87 in Calm     83% 0.00 in
08:19 58.9 °F 53.4 °F 29.87 in Calm     82% 0.00 in
08:24 59.3 °F 54.1 °F 29.87 in Calm     83% 0.00 in
08:29 59.8 °F 54.3 °F 29.87 in Calm     82% 0.00 in
08:34 60.2 °F 54.3 °F 29.87 in Calm     81% 0.00 in
08:39 60.7 °F 54.8 °F 29.86 in Calm     81% 0.00 in
08:44 61.9 °F 55.7 °F 29.86 in Calm     80% 0.00 in
08:49 62.7 °F 55.7 °F 29.86 in Calm     78% 0.00 in
08:54 63.8 °F 56.4 °F 29.86 in Calm     77% 0.00 in
08:59 63.9 °F 56.2 °F 29.86 in Calm     76% 0.00 in
09:04 64.0 °F 56.3 °F 29.86 in Calm     76% 0.00 in
09:09 65.1 °F 56.6 °F 29.86 in ESE 2.0 mph 2.0 mph 74% 0.00 in
09:14 65.2 °F 56.7 °F 29.86 in SE 1.0 mph 3.0 mph 74% 0.00 in
09:19 65.5 °F 57.0 °F 29.86 in ESE 1.0 mph 3.0 mph 74% 0.00 in
09:24 66.7 °F 57.4 °F 29.86 in Calm   3.0 mph 72% 0.00 in
09:29 67.1 °F 57.4 °F 29.86 in Calm   3.0 mph 71% 0.00 in
09:34 67.4 °F 57.3 °F 29.86 in South 2.0 mph 4.0 mph 70% 0.00 in
09:39 68.1 °F 57.9 °F 29.86 in South 2.0 mph 5.0 mph 70% 0.00 in
09:44 67.7 °F 58.0 °F 29.86 in Calm   5.0 mph 71% 0.00 in
09:49 67.8 °F 58.1 °F 29.86 in SW 3.0 mph 4.0 mph 71% 0.00 in
09:54 67.6 °F 57.5 °F 29.86 in Calm   5.0 mph 70% 0.00 in
09:59 67.6 °F 58.2 °F 29.86 in SSW 2.0 mph 3.0 mph 72% 0.00 in
10:04 67.4 °F 57.7 °F 29.86 in SSW 2.0 mph 4.0 mph 71% 0.00 in
10:09 67.4 °F 57.3 °F 29.86 in South 2.0 mph 5.0 mph 70% 0.00 in
10:14 67.7 °F 58.0 °F 29.86 in SSW 2.0 mph 4.0 mph 71% 0.00 in
10:19 68.0 °F 57.8 °F 29.86 in South 1.0 mph 4.0 mph 70% 0.00 in
10:24 68.0 °F 57.8 °F 29.86 in South 2.0 mph 4.0 mph 70% 0.00 in
10:29 68.0 °F 57.8 °F 29.86 in South 1.0 mph 4.0 mph 70% 0.00 in
10:34 68.4 °F 58.2 °F 29.85 in SSW 2.0 mph 4.0 mph 70% 0.00 in
10:39 69.1 °F 58.9 °F 29.85 in SSW 2.0 mph 4.0 mph 70% 0.00 in
10:44 69.2 °F 58.6 °F 29.85 in SSW 1.0 mph 4.0 mph 69% 0.00 in
10:49 69.4 °F 58.8 °F 29.85 in WSW 2.0 mph 5.0 mph 69% 0.00 in
10:54 69.6 °F 59.4 °F 29.85 in SW 1.0 mph 5.0 mph 70% 0.00 in
10:59 70.2 °F 58.3 °F 29.85 in Calm   2.0 mph 66% 0.00 in
11:04 70.8 °F 58.9 °F 29.84 in Calm   3.0 mph 66% 0.00 in
11:09 70.8 °F 58.4 °F 29.84 in Calm   2.0 mph 65% 0.00 in
11:14 71.2 °F 59.3 °F 29.84 in WSW 1.0 mph 2.0 mph 66% 0.00 in
11:19 71.1 °F 59.2 °F 29.84 in Calm   4.0 mph 66% 0.00 in
11:24 72.0 °F 59.6 °F 29.84 in South 2.0 mph 3.0 mph 65% 0.00 in
11:29 73.1 °F 61.1 °F 29.84 in South 1.0 mph 3.0 mph 66% 0.00 in
11:34 73.2 °F 59.8 °F 29.83 in SW 1.0 mph 5.0 mph 63% 0.00 in
11:39 72.7 °F 59.4 °F 29.83 in SW 2.0 mph 5.0 mph 63% 0.00 in
11:44 73.3 °F 59.0 °F 29.83 in WSW 3.0 mph 6.0 mph 61% 0.00 in
11:49 73.6 °F 59.3 °F 29.83 in WSW 3.0 mph 6.0 mph 61% 0.00 in
11:54 74.0 °F 59.7 °F 29.84 in WSW 2.0 mph 7.0 mph 61% 0.00 in
11:59 73.7 °F 59.4 °F 29.83 in SW 3.0 mph 7.0 mph 61% 0.00 in
12:04 74.0 °F 60.2 °F 29.83 in SW 2.0 mph 5.0 mph 62% 0.00 in
12:09 73.8 °F 59.0 °F 29.83 in West 1.0 mph 6.0 mph 60% 0.00 in
12:14 73.8 °F 60.0 °F 29.83 in WSW 2.0 mph 5.0 mph 62% 0.00 in
12:19 74.3 °F 60.0 °F 29.83 in SSW 2.0 mph 7.0 mph 61% 0.00 in
12:24 74.7 °F 59.4 °F 29.83 in SSW 5.0 mph 6.0 mph 59% 0.00 in
12:29 75.1 °F 60.3 °F 29.83 in SW 2.0 mph 6.0 mph 60% 0.00 in
12:34 75.4 °F 60.5 °F 29.83 in SSW 2.0 mph 6.0 mph 60% 0.00 in
12:39 76.1 °F 60.2 °F 29.83 in SSW 1.0 mph 4.0 mph 58% 0.00 in
12:44 76.5 °F 62.0 °F 29.82 in SSW 2.0 mph 5.0 mph 61% 0.00 in
12:49 76.2 °F 61.8 °F 29.82 in SW 2.0 mph 6.0 mph 61% 0.00 in
12:54 77.1 °F 60.7 °F 29.82 in SSW 2.0 mph 8.0 mph 57% 0.00 in
12:59 76.7 °F 60.8 °F 29.82 in West 4.0 mph 6.0 mph 58% 0.00 in
13:09 76.9 °F 60.0 °F 29.82 in South 2.0 mph 4.0 mph 56% 0.00 in
13:14 77.3 °F 61.4 °F 29.81 in West 4.0 mph 4.0 mph 58% 0.00 in
13:19 77.8 °F 60.8 °F 29.81 in West 3.0 mph 6.0 mph 56% 0.00 in
13:24 77.6 °F 60.2 °F 29.81 in WSW 3.0 mph 5.0 mph 55% 0.00 in
13:29 77.8 °F 60.8 °F 29.80 in WNW 2.0 mph 5.0 mph 56% 0.00 in
13:34 78.4 °F 62.4 °F 29.80 in West 3.0 mph 7.0 mph 58% 0.00 in
13:39 78.5 °F 61.0 °F 29.80 in WSW 3.0 mph 7.0 mph 55% 0.00 in
13:49 78.5 °F 62.5 °F 29.80 in WSW 3.0 mph 6.0 mph 58% 0.00 in
13:54 79.0 °F 61.5 °F 29.80 in SW 3.0 mph 6.0 mph 55% 0.00 in
13:59 79.1 °F 62.1 °F 29.80 in SW 4.0 mph 7.0 mph 56% 0.00 in
14:04 79.1 °F 62.1 °F 29.80 in West 4.0 mph 9.0 mph 56% 0.00 in
14:09 78.8 °F 61.8 °F 29.80 in WSW 5.0 mph 10.0 mph 56% 0.00 in
14:14 78.9 °F 62.9 °F 29.79 in West 2.0 mph 8.0 mph 58% 0.00 in
14:19 79.2 °F 62.7 °F 29.79 in West 4.0 mph 7.0 mph 57% 0.00 in
14:24 78.7 °F 62.2 °F 29.79 in WSW 4.0 mph 8.0 mph 57% 0.00 in
14:29 78.1 °F 61.6 °F 29.79 in West 7.0 mph 9.0 mph 57% 0.00 in
14:34 78.7 °F 61.7 °F 29.79 in West 4.0 mph 9.0 mph 56% 0.00 in
14:39 78.9 °F 63.4 °F 29.79 in WSW 4.0 mph 8.0 mph 59% 0.00 in
14:44 79.1 °F 62.6 °F 29.78 in WSW 4.0 mph 8.0 mph 57% 0.00 in
14:49 79.2 °F 63.1 °F 29.78 in WSW 3.0 mph 7.0 mph 58% 0.00 in
14:54 79.6 °F 63.5 °F 29.78 in West 4.0 mph 6.0 mph 58% 0.00 in
14:59 80.0 °F 63.4 °F 29.78 in WSW 4.0 mph 8.0 mph 57% 0.00 in
15:04 79.8 °F 63.7 °F 29.78 in WSW 4.0 mph 8.0 mph 58% 0.00 in
15:09 80.2 °F 63.1 °F 29.78 in WSW 4.0 mph 7.0 mph 56% 0.00 in
15:14 79.7 °F 63.1 °F 29.78 in WSW 3.0 mph 9.0 mph 57% 0.00 in
15:19 79.7 °F 63.6 °F 29.78 in WSW 3.0 mph 9.0 mph 58% 0.00 in
15:24 80.4 °F 64.8 °F 29.78 in SW 6.0 mph 6.0 mph 59% 0.00 in
15:29 80.6 °F 64.5 °F 29.77 in SW 5.0 mph 7.0 mph 58% 0.00 in
15:34 79.8 °F 63.2 °F 29.77 in WSW 4.0 mph 8.0 mph 57% 0.00 in
15:39 79.8 °F 63.7 °F 29.77 in WSW 4.0 mph 8.0 mph 58% 0.00 in
15:44 80.2 °F 65.1 °F 29.77 in SW 3.0 mph 8.0 mph 60% 0.00 in
15:49 80.2 °F 64.1 °F 29.77 in WSW 4.0 mph 8.0 mph 58% 0.00 in
15:54 80.3 °F 63.7 °F 29.77 in SW 4.0 mph 10.0 mph 57% 0.00 in
15:59 79.9 °F 63.8 °F 29.77 in SW 3.0 mph 10.0 mph 58% 0.00 in
16:04 80.4 °F 64.8 °F 29.77 in WSW 4.0 mph 8.0 mph 59% 0.00 in
16:09 79.6 °F 63.5 °F 29.77 in WSW 4.0 mph 8.0 mph 58% 0.00 in
16:14 78.1 °F 62.6 °F 29.78 in WSW 4.0 mph 8.0 mph 59% 0.00 in
16:19 77.6 °F 63.1 °F 29.78 in WSW 4.0 mph 8.0 mph 61% 0.00 in
16:24 77.0 °F 62.5 °F 29.78 in WSW 4.0 mph 7.0 mph 61% 0.00 in
16:29 77.5 °F 63.5 °F 29.77 in WSW 4.0 mph 7.0 mph 62% 0.00 in
16:34 76.7 °F 62.7 °F 29.77 in West 2.0 mph 5.0 mph 62% 0.00 in
16:39 77.3 °F 63.3 °F 29.77 in West 3.0 mph 5.0 mph 62% 0.00 in
16:44 77.8 °F 63.7 °F 29.76 in West 3.0 mph 6.0 mph 62% 0.00 in
16:49 78.1 °F 64.0 °F 29.76 in West 1.0 mph 4.0 mph 62% 0.00 in
16:54 78.5 °F 63.9 °F 29.76 in Calm   4.0 mph 61% 0.00 in
16:59 78.8 °F 63.7 °F 29.76 in West 2.0 mph 3.0 mph 60% 0.00 in
17:04 79.3 °F 64.2 °F 29.76 in WSW 6.0 mph 6.0 mph 60% 0.00 in
17:09 79.2 °F 64.1 °F 29.76 in West 3.0 mph 7.0 mph 60% 0.00 in
17:14 79.2 °F 64.1 °F 29.76 in WSW 4.0 mph 7.0 mph 60% 0.00 in
17:19 78.7 °F 64.1 °F 29.76 in WSW 3.0 mph 7.0 mph 61% 0.00 in
17:24 79.3 °F 64.7 °F 29.76 in West 3.0 mph 7.0 mph 61% 0.00 in
17:29 79.1 °F 64.0 °F 29.77 in West 3.0 mph 6.0 mph 60% 0.00 in
17:34 79.1 °F 64.0 °F 29.76 in WSW 2.0 mph 4.0 mph 60% 0.00 in
17:39 79.6 °F 64.5 °F 29.76 in WSW 3.0 mph 6.0 mph 60% 0.00 in
17:44 79.2 °F 64.1 °F 29.76 in West 3.0 mph 7.0 mph 60% 0.00 in
17:49 79.0 °F 63.9 °F 29.76 in WSW 5.0 mph 6.0 mph 60% 0.00 in
17:54 78.4 °F 63.8 °F 29.76 in SW 3.0 mph 7.0 mph 61% 0.00 in
17:59 77.5 °F 63.5 °F 29.76 in SW 6.0 mph 7.0 mph 62% 0.00 in
18:04 77.2 °F 63.6 °F 29.76 in SSW 2.0 mph 6.0 mph 63% 0.00 in
18:09 77.0 °F 63.4 °F 29.76 in SW 3.0 mph 6.0 mph 63% 0.00 in
18:14 76.8 °F 63.2 °F 29.76 in SW 2.0 mph 4.0 mph 63% 0.00 in
18:19 76.4 °F 63.3 °F 29.76 in SW 3.0 mph 5.0 mph 64% 0.00 in
18:24 76.0 °F 63.4 °F 29.76 in SW 2.0 mph 5.0 mph 65% 0.00 in
18:29 75.5 °F 63.3 °F 29.77 in SW 2.0 mph 7.0 mph 66% 0.00 in
18:34 75.4 °F 63.2 °F 29.77 in SW 2.0 mph 7.0 mph 66% 0.00 in
18:39 75.0 °F 63.3 °F 29.77 in SW 3.0 mph 6.0 mph 67% 0.00 in
18:44 74.6 °F 62.9 °F 29.77 in SW 3.0 mph 5.0 mph 67% 0.00 in
18:49 74.3 °F 63.5 °F 29.77 in SW 2.0 mph 4.0 mph 69% 0.00 in
18:54 73.9 °F 62.7 °F 29.77 in SW 3.0 mph 5.0 mph 68% 0.00 in
18:59 73.5 °F 62.7 °F 29.77 in SW 3.0 mph 6.0 mph 69% 0.00 in
19:04 73.1 °F 62.7 °F 29.77 in WSW 2.0 mph 5.0 mph 70% 0.00 in
19:09 72.8 °F 62.4 °F 29.77 in WSW 3.0 mph 4.0 mph 70% 0.00 in
19:14 72.3 °F 62.4 °F 29.77 in WSW 1.0 mph 5.0 mph 71% 0.00 in
19:19 72.0 °F 62.5 °F 29.77 in SW 2.0 mph 5.0 mph 72% 0.00 in
19:24 71.7 °F 62.2 °F 29.77 in SW 2.0 mph 4.0 mph 72% 0.00 in
19:29 71.5 °F 62.4 °F 29.78 in SW 1.0 mph 3.0 mph 73% 0.00 in
19:34 71.2 °F 62.1 °F 29.78 in SW 1.0 mph 3.0 mph 73% 0.00 in
19:39 71.0 °F 62.3 °F 29.78 in Calm   2.0 mph 74% 0.00 in
19:44 70.8 °F 62.1 °F 29.78 in Calm   2.0 mph 74% 0.00 in
19:49 70.8 °F 62.1 °F 29.78 in Calm   1.0 mph 74% 0.00 in
19:54 70.4 °F 62.1 °F 29.78 in Calm     75% 0.00 in
19:59 69.9 °F 62.0 °F 29.78 in Calm     76% 0.00 in
20:04 69.8 °F 61.9 °F 29.78 in Calm     76% 0.00 in
20:09 69.9 °F 62.0 °F 29.78 in Calm     76% 0.00 in
20:14 69.3 °F 61.8 °F 29.79 in Calm     77% 0.00 in
20:19 69.1 °F 61.6 °F 29.79 in Calm     77% 0.00 in
20:24 69.0 °F 61.5 °F 29.79 in Calm     77% 0.00 in
20:29 68.6 °F 61.5 °F 29.79 in Calm     78% 0.00 in
20:34 68.5 °F 61.4 °F 29.79 in Calm     78% 0.00 in
20:39 68.3 °F 61.5 °F 29.79 in Calm     79% 0.00 in
20:44 68.3 °F 61.9 °F 29.79 in Calm     80% 0.00 in
20:49 68.4 °F 61.6 °F 29.79 in Calm     79% 0.00 in
20:54 68.4 °F 61.6 °F 29.79 in Calm     79% 0.00 in
20:59 68.4 °F 61.6 °F 29.79 in Calm     79% 0.00 in
21:04 68.2 °F 61.4 °F 29.79 in Calm     79% 0.00 in
21:09 67.9 °F 61.5 °F 29.79 in Calm     80% 0.00 in
21:14 67.7 °F 61.3 °F 29.79 in Calm     80% 0.00 in
21:19 67.8 °F 61.4 °F 29.79 in Calm     80% 0.00 in
21:29 67.4 °F 61.0 °F 29.80 in Calm     80% 0.00 in
21:34 67.2 °F 61.2 °F 29.80 in Calm     81% 0.00 in
21:39 67.0 °F 61.0 °F 29.79 in Calm     81% 0.00 in
21:44 67.0 °F 61.0 °F 29.79 in Calm     81% 0.00 in
21:49 66.9 °F 60.9 °F 29.79 in Calm     81% 0.00 in
21:54 66.7 °F 61.0 °F 29.79 in Calm     82% 0.00 in
21:59 66.6 °F 60.9 °F 29.79 in Calm     82% 0.00 in
22:04 66.5 °F 61.2 °F 29.79 in Calm     83% 0.00 in
22:09 66.4 °F 60.7 °F 29.79 in Calm     82% 0.00 in
22:14 66.3 °F 61.0 °F 29.79 in Calm     83% 0.00 in
22:19 66.2 °F 60.9 °F 29.79 in Calm     83% 0.00 in
22:24 66.1 °F 60.8 °F 29.79 in Calm     83% 0.00 in
22:29 65.9 °F 60.6 °F 29.79 in Calm     83% 0.00 in
22:34 65.8 °F 60.5 °F 29.79 in Calm     83% 0.00 in
22:39 65.6 °F 60.6 °F 29.79 in Calm     84% 0.00 in
22:44 65.6 °F 60.6 °F 29.79 in Calm     84% 0.00 in
22:49 65.6 °F 60.6 °F 29.79 in Calm     84% 0.00 in
22:54 65.6 °F 60.6 °F 29.79 in Calm     84% 0.00 in
22:59 65.6 °F 60.6 °F 29.79 in Calm     84% 0.00 in
23:04 65.6 °F 60.6 °F 29.79 in Calm     84% 0.00 in
23:09 65.5 °F 60.5 °F 29.79 in Calm     84% 0.00 in
23:15 65.3 °F 60.3 °F 29.79 in Calm     84% 0.00 in
23:24 65.0 °F 60.0 °F 29.79 in Calm     84% 0.00 in
23:29 65.1 °F 60.5 °F 29.79 in Calm     85% 0.00 in
23:34 64.9 °F 60.3 °F 29.79 in Calm     85% 0.00 in
23:39 65.0 °F 60.4 °F 29.79 in Calm     85% 0.00 in
23:44 65.0 °F 60.4 °F 29.79 in Calm     85% 0.00 in
23:49 65.0 °F 60.7 °F 29.78 in Calm     86% 0.00 in
23:54 65.1 °F 60.8 °F 29.78 in Calm     86% 0.00 in
23:59 65.2 °F 60.9 °F 29.79 in Calm     86% 0.00 in
Buffalo, New York, USA
Compliments of Weather Underground - 2.5 mb